• Join FlightAware (Why Join?)
  • Login
  • US Flag 
03:13PM EDT


 

Airport Tracker/Info


-or-


 

Live Flight TrackerFlight Track Log ✈ AAL1482 ✈ 18-Apr-2013 ✈ KLAS - KDFW

Flight Track Log - Related Links

Times and Time Zones

All times are in EDT time to prevent confusion due to time zone crossing. See the AAL1482 flight status page for this flight to view local times or setup timezone preferences in your user account.

Time Position Orientation Groundspeed Altitude Reporting Facility
EDT Latitude Longitude Course Direction KTS MPH feet Rate Location/Type
09:58PM 36.1047 -115.1508 84° East 149 171 3,100  Level Los Angeles Center
09:59PM 36.1317 -115.1258 37° Northeast 189 217 4,500 2,460 Climbing Los Angeles Center
10:00PM 35.8735 -115.2600 161° South  Level FlightAware Approximate
10:00PM 36.1381 -115.0358 85° East 262 302 7,400  Level Los Angeles Center
10:01PM 35.8264 -115.1202 103° East  Level FlightAware Approximate
10:01PM 36.1433 -114.9356 86° East 276 318 10,700  Level Los Angeles Center
10:02PM 35.8265 -114.9586 84° East  Level FlightAware Approximate
10:02PM 36.1075 -114.8264 112° Southeast 337 388 12,900  Level Los Angeles Center
10:03PM 35.8393 -114.7958 84° East  Level FlightAware Approximate
10:03PM 36.0714 -114.7089 111° Southeast 360 414 15,300  Level Los Angeles Center
10:04PM 36.0328 -114.5836 111° Southeast 384 442 17,500 1,980 Climbing Los Angeles Center
10:05PM 36.0000 -114.4519 107° East 397 457 19,400 1,860 Climbing Los Angeles Center
10:06PM 35.9825 -114.3125 99° East 409 471 21,400 1,980 Climbing Los Angeles Center
10:07PM 35.9628 -114.1706 100° East 417 480 23,500 2,160 Climbing Los Angeles Center
10:08PM 35.9367 -113.9956 100° East 430 495 25,900 2,040 Climbing Los Angeles Center
10:09PM 35.9133 -113.8408 101° East 452 520 27,700 1,740 Climbing Los Angeles Center
10:10PM 35.8883 -113.6828 101° East 466 536 29,500 1,560 Climbing Los Angeles Center
10:11PM 35.8625 -113.5172 101° East 481 554 31,000 1,740 Climbing Los Angeles Center
10:12PM 35.8358 -113.3506 101° East 492 566 33,100 1,920 Climbing Los Angeles Center
10:13PM 35.8100 -113.1875 101° East 488 562 35,000 1,500 Climbing Los Angeles Center
10:14PM 35.7836 -113.0239 101° East 486 559 36,200 1,200 Climbing Los Angeles Center
10:15PM 35.7622 -112.8544 99° East 496 571 37,600 1,020 Climbing Los Angeles Center
10:16PM 35.7522 -112.6858 94° East 493 567 38,400 720 Climbing Los Angeles Center
10:17PM 35.7406 -112.4786 94° East 503 579 39,100 660 Climbing Los Angeles Center
10:18PM 35.7292 -112.3042 95° East 511 588 39,800 600 Climbing Los Angeles Center
10:19PM 35.7178 -112.1297 95° East 511 588 40,400 540 Climbing Los Angeles Center
10:20PM 35.7069 -111.9556 94° East 511 588 41,000 300 Climbing Los Angeles Center
10:21PM 35.6939 -111.7817 95° East 511 588 41,100  Climbing Los Angeles Center
10:22PM 35.6831 -111.6003 94° East 506 582 41,100  Level Los Angeles Center
10:23PM 35.6731 -111.4711 95° East 507 583 41,100  Level Albuquerque Center
10:24PM 35.6622 -111.2886 94° East 507 583 41,100  Level Albuquerque Center
10:25PM 35.6522 -111.1231 94° East 508 585 41,100  Level Albuquerque Center
10:26PM 35.6378 -110.9292 95° East 509 586 41,100  Level Albuquerque Center
10:27PM 35.6244 -110.7622 96° East 511 588 41,100  Level Albuquerque Center
10:28PM 35.6092 -110.5658 95° East 515 593 41,100  Level Albuquerque Center
10:29PM 35.5981 -110.3978 95° East 516 594 41,100  Level Albuquerque Center
10:30PM 35.5825 -110.1986 95° East 522 601 41,100  Level Albuquerque Center
10:31PM 35.5694 -110.0292 95° East 522 601 41,100  Level Albuquerque Center
10:32PM 35.5564 -109.8592 95° East 523 602 41,100  Level Albuquerque Center
10:33PM 35.5417 -109.6628 95° East 520 598 41,100  Level Albuquerque Center
10:34PM 35.5283 -109.4933 95° East 521 600 41,100  Level Albuquerque Center
10:35PM 35.5117 -109.2933 96° East 528 608 41,100  Level Albuquerque Center
10:37PM 35.4978 -109.1253 96° East 523 602 41,100  Level Albuquerque Center
10:38PM 35.4842 -108.9547 96° East 526 605 41,100  Level Albuquerque Center
10:39PM 35.4550 -108.7564 100° East 531 611 41,100  Level Albuquerque Center
10:40PM 35.4217 -108.5881 104° East 533 613 41,100  Level Albuquerque Center
10:41PM 35.3822 -108.3919 104° East 533 613 41,100  Level Albuquerque Center
10:42PM 35.3483 -108.2225 104° East 535 616 41,100  Level Albuquerque Center
10:43PM 35.3078 -108.0247 104° East 537 618 41,100  Level Albuquerque Center
10:44PM 35.2731 -107.8553 104° East 537 618 41,100  Level Albuquerque Center
10:45PM 35.2375 -107.6858 104° East 538 619 41,100 -60 Level Albuquerque Center
10:46PM 35.1947 -107.4875 105° East 540 621 41,000  Descending Albuquerque Center
10:47PM 35.1536 -107.3064 105° East 540 621 41,100  Climbing Albuquerque Center
10:48PM 35.1147 -107.1194 104° East 542 624 41,100  Level Albuquerque Center
10:49PM 35.0783 -106.9489 105° East 542 624 41,100  Level Albuquerque Center
10:50PM 35.0406 -106.7825 105° East 534 615 41,100  Level Albuquerque Center
10:51PM 35.0164 -106.5814 98° East 534 615 41,100  Level Albuquerque Center
10:52PM 34.9950 -106.3914 98° East 550 633 41,100 -60 Level Albuquerque Center
10:53PM 34.9722 -106.2122 99° East 540 621 41,000  Descending Albuquerque Center
10:54PM 34.9494 -106.0331 99° East 536 617 41,100  Climbing Albuquerque Center
10:55PM 34.9272 -105.8558 99° East 534 615 41,100  Level Albuquerque Center
10:56PM 34.9031 -105.6758 99° East 534 615 41,100  Level Albuquerque Center
10:57PM 34.8781 -105.4947 100° East 537 618 41,100  Level Albuquerque Center
10:58PM 34.8528 -105.3125 100° East 541 623 41,100  Level Albuquerque Center
10:59PM 34.8239 -105.1022 99° East 539 620 41,100  Level Albuquerque Center
11:00PM 34.7986 -104.9192 99° East 542 624 41,100  Level Albuquerque Center
11:01PM 34.7736 -104.7381 99° East 543 625 41,100  Level Albuquerque Center
11:02PM 34.7483 -104.5572 100° East 541 623 41,100  Level Albuquerque Center
11:03PM 34.7228 -104.3758 100° East 542 624 41,100  Level Albuquerque Center
11:04PM 34.6964 -104.1917 100° East 549 632 41,100  Level Albuquerque Center
11:05PM 34.6714 -104.0086 99° East 550 633 41,100  Level Albuquerque Center
11:06PM 34.6436 -103.8261 100° East 548 631 41,100  Level Albuquerque Center
11:07PM 34.6133 -103.6119 100° East 548 631 41,100  Level Albuquerque Center
11:08PM 34.5869 -103.4286 100° East 549 632 41,100  Level Albuquerque Center
11:09PM 34.5586 -103.2444 101° East 552 635 41,100  Level Albuquerque Center
11:10PM 34.5317 -103.0600 100° East 552 635 41,100  Level Albuquerque Center
11:11PM 34.5019 -102.8747 101° East 554 638 41,100  Level Albuquerque Center
11:12PM 34.4800 -102.7008 99° East 557 641 41,100  Level Albuquerque Center
11:13PM 34.4619 -102.5153 97° East 559 643 41,100  Level Albuquerque Center
11:14PM 34.4397 -102.2919 97° East 560 644 41,100  Level Albuquerque Center
11:15PM 34.4200 -102.1053 97° East 562 647 41,100  Level Albuquerque Center
11:16PM 34.4006 -101.9200 97° East 561 646 41,100  Level Albuquerque Center
11:17PM 34.3800 -101.7342 98° East 561 646 41,100  Level Albuquerque Center
11:18PM 34.3672 -101.6275 98° East 560 644 41,100  Level Fort Worth Center
11:19PM 34.3497 -101.4658 97° East 559 643 41,100  Level Fort Worth Center
11:20PM 34.3186 -101.2631 100° East 549 632 41,100  Level Fort Worth Center
11:21PM 34.2858 -101.1033 104° East 544 626 41,100  Level Fort Worth Center
11:22PM 34.2456 -100.9081 104° East 544 626 41,100  Level Fort Worth Center
11:23PM 34.2086 -100.7308 104° East 544 626 41,100  Level Fort Worth Center
11:24PM 34.1692 -100.5561 105° East 544 626 41,100  Level Fort Worth Center
11:25PM 34.1392 -100.4172 105° East 538 619 41,100  Level Fort Worth Center
11:26PM 34.0978 -100.2250 105° East 538 619 41,100  Level Fort Worth Center
11:27PM 34.0558 -100.0508 106° East 538 619 41,100  Level Fort Worth Center
11:28PM 34.0175 -99.8742 105° East 538 619 41,100  Level Fort Worth Center
11:29PM 33.9772 -99.6978 105° East 540 621 41,100 -180 Level Fort Worth Center
11:30PM 33.9300 -99.5236 108° East 540 621 40,800 -1,200 Descending Fort Worth Center
11:31PM 33.8808 -99.3525 109° East 545 627 38,800 -2,040 Descending Fort Worth Center
11:32PM 33.8292 -99.1664 108° East 538 619 36,800 -2,100 Descending Fort Worth Center
11:33PM 33.7792 -99.0028 110° East 527 606 34,700 -2,220 Descending Fort Worth Center
11:34PM 33.7353 -98.8372 108° East 527 606 32,400 -2,640 Descending Fort Worth Center
11:35PM 33.6828 -98.6667 110° East 532 612 29,500 -2,640 Descending Fort Worth Center
11:36PM 33.6406 -98.5114 108° East 537 618 27,200 -2,220 Descending Fort Worth Center
11:37PM 33.5917 -98.3411 109° East 542 624 25,100 -1,140 Descending Fort Worth Center
11:38PM 33.5408 -98.1711 110° East 513 590 25,000 -1,740 Descending Fort Worth Center
11:39PM 33.4978 -98.0311 110° East 461 531 21,700 -3,060 Descending Fort Worth Center
11:40PM 33.4525 -97.8817 110° East 456 525 18,900 -2,880 Descending Fort Worth Center
11:41PM 33.4092 -97.7344 109° East 471 542 16,000 -2,400 Descending Fort Worth Center
11:42PM 33.3572 -97.6125 117° Southeast 434 499 14,100 -2,340 Descending Fort Worth Center
11:43PM 33.2883 -97.5278 134° Southeast 384 442 11,400 -1,500 Descending Fort Worth Center
11:44PM 33.2258 -97.4581 137° Southeast 348 400 11,100 -240 Descending Fort Worth Center
11:45PM 33.1528 -97.3736 136° Southeast 330 380 11,000 -60 Descending Fort Worth Center
11:46PM 33.0964 -97.3069 135° Southeast 325 374 11,000  Level Fort Worth Center
11:47PM 33.0233 -97.2228 136° Southeast 330 380 11,000 -180 Level Fort Worth Center
11:48PM 32.9708 -97.1658 138° Southeast 303 349 10,700 -780 Descending Fort Worth Center
11:49PM 32.8917 -97.1661 180° South 264 304 9,500 -1,200 Descending Fort Worth Center
11:50PM 32.8206 -97.1686 182° South 258 297 8,400 -1,500 Descending Fort Worth Center
11:51PM 32.7517 -97.1564 172° South 253 291 6,500 -1,260 Descending Fort Worth Center
11:52PM 32.6972 -97.1222 152° Southeast 245 282 5,900 -840 Descending Fort Worth Center
11:52PM 32.6833 -97.0833 113° Southeast 222 255 5,400 -1,260 Descending Dallas / Fort Worth TRACON